createdAt,value
2023-10-25T00:00:00.446Z,100309.12
2023-10-25T00:02:30.010Z,100304.61
2023-10-25T00:04:58.438Z,100303.10
2023-10-25T00:07:26.466Z,100299.36
2023-10-25T00:09:54.774Z,100299.77
2023-10-25T00:12:23.344Z,100296.98
2023-10-25T00:14:51.394Z,100290.23
2023-10-25T00:17:19.449Z,100289.36
2023-10-25T00:19:47.616Z,100285.02
2023-10-25T00:22:16.103Z,100277.02
2023-10-25T00:24:44.320Z,100265.70
2023-10-25T00:27:12.616Z,100257.65
2023-10-25T00:29:41.069Z,100245.58
2023-10-25T00:32:16.017Z,100238.77
2023-10-25T00:34:44.453Z,100237.80
2023-10-25T00:37:12.823Z,100237.15
2023-10-25T00:39:42.098Z,100234.58
2023-10-25T00:42:10.956Z,100233.15
2023-10-25T00:44:39.247Z,100234.05
2023-10-25T00:47:09.046Z,100236.36
2023-10-25T00:49:37.770Z,100234.17
2023-10-25T00:52:06.412Z,100241.85
2023-10-25T00:54:37.593Z,100244.84
2023-10-25T00:57:05.995Z,100244.83
2023-10-25T00:59:34.561Z,100247.94
2023-10-25T01:02:04.229Z,100247.36
2023-10-25T01:04:32.721Z,100237.93
2023-10-25T01:07:01.359Z,100236.58
2023-10-25T01:09:32.020Z,100236.86
2023-10-25T01:12:00.486Z,100237.08
2023-10-25T01:14:31.140Z,100243.05
2023-10-25T01:16:59.407Z,100243.45
2023-10-25T01:19:28.337Z,100245.74
2023-10-25T01:21:56.848Z,100241.21
2023-10-25T01:24:25.196Z,100248.94
2023-10-25T01:26:53.269Z,100257.77
2023-10-25T01:29:21.760Z,100256.17
2023-10-25T01:31:50.572Z,100252.55
2023-10-25T01:34:20.305Z,100248.91
2023-10-25T01:36:48.563Z,100244.38
2023-10-25T01:39:16.983Z,100237.46
2023-10-25T01:41:46.931Z,100235.55
2023-10-25T01:44:16.011Z,100233.55
2023-10-25T01:46:44.654Z,100222.27
2023-10-25T01:49:12.918Z,100223.48
2023-10-25T01:51:41.220Z,100219.87
2023-10-25T01:54:09.596Z,100218.35
2023-10-25T01:56:38.392Z,100215.09
2023-10-25T01:59:07.549Z,100206.83
2023-10-25T02:01:35.769Z,100195.20
2023-10-25T02:04:04.406Z,100185.79
2023-10-25T02:06:32.596Z,100182.38
2023-10-25T02:09:00.792Z,100185.17
2023-10-25T02:11:29.112Z,100169.35
2023-10-25T02:14:00.428Z,100148.52
2023-10-25T02:16:28.889Z,100146.54
2023-10-25T02:18:57.244Z,100142.70
2023-10-25T02:21:25.496Z,100137.81
2023-10-25T02:23:56.637Z,100131.36
2023-10-25T02:26:24.702Z,100126.29
2023-10-25T02:28:52.772Z,100123.51
2023-10-25T02:31:21.461Z,100114.77
2023-10-25T02:33:50.198Z,100109.45
2023-10-25T02:36:18.601Z,100110.45
2023-10-25T02:38:49.353Z,100107.98
2023-10-25T02:41:17.582Z,100109.45
2023-10-25T02:43:46.087Z,100112.86
2023-10-25T02:46:14.854Z,100106.20
2023-10-25T02:48:43.221Z,100104.96
2023-10-25T02:51:11.605Z,100102.29
2023-10-25T02:53:40.502Z,100097.45
2023-10-25T02:56:09.435Z,100095.48
2023-10-25T02:58:38.014Z,100090.26
2023-10-25T03:01:06.916Z,100088.20
2023-10-25T03:03:36.217Z,100084.42
2023-10-25T03:06:05.311Z,100085.17
2023-10-25T03:08:33.443Z,100082.64
2023-10-25T03:11:01.469Z,100083.66
2023-10-25T03:13:29.875Z,100072.77
2023-10-25T03:15:59.165Z,100068.77
2023-10-25T03:18:27.399Z,100077.50
2023-10-25T03:20:56.217Z,100070.27
2023-10-25T03:23:24.312Z,100067.30
2023-10-25T03:25:52.364Z,100067.07
2023-10-25T03:28:20.766Z,100067.67
2023-10-25T03:30:49.211Z,100063.27
2023-10-25T03:33:17.764Z,100068.14
2023-10-25T03:35:52.699Z,100064.44
2023-10-25T03:38:21.350Z,100054.27
2023-10-25T03:40:50.154Z,100044.47
2023-10-25T03:43:18.422Z,100027.07
2023-10-25T03:45:46.658Z,100021.77
2023-10-25T03:48:15.376Z,100017.66
2023-10-25T03:50:43.623Z,100016.09
2023-10-25T03:53:12.284Z,100013.93
2023-10-25T03:55:40.381Z,100007.25
2023-10-25T03:58:09.915Z,99993.85
2023-10-25T04:00:38.522Z,99989.63
2023-10-25T04:03:06.931Z,99996.98
2023-10-25T04:05:35.534Z,99994.59
2023-10-25T04:08:03.606Z,99995.02
2023-10-25T04:10:33.853Z,99994.52
2023-10-25T04:13:02.278Z,99992.12
2023-10-25T04:15:36.128Z,99986.27
2023-10-25T04:18:06.077Z,99980.82
2023-10-25T04:20:34.269Z,99969.23
2023-10-25T04:23:02.598Z,99954.19
2023-10-25T04:25:30.915Z,99948.52
2023-10-25T04:27:59.194Z,99943.46
2023-10-25T04:30:27.821Z,99949.16
2023-10-25T04:32:56.208Z,99955.11
2023-10-25T04:35:24.633Z,99947.11
2023-10-25T04:37:52.661Z,99951.57
2023-10-25T04:40:20.775Z,99947.09
2023-10-25T04:42:55.015Z,99942.76
2023-10-25T04:45:23.582Z,99936.55
2023-10-25T04:47:52.566Z,99934.01
2023-10-25T04:50:22.398Z,99931.51
2023-10-25T04:52:50.852Z,99933.85
2023-10-25T04:55:19.788Z,99932.56
2023-10-25T04:57:48.165Z,99926.02
2023-10-25T05:00:16.897Z,99932.27
2023-10-25T05:02:45.893Z,99931.64
2023-10-25T05:05:14.093Z,99924.58
2023-10-25T05:07:42.864Z,99924.02
2023-10-25T05:10:13.598Z,99928.93
2023-10-25T05:12:44.201Z,99937.09
2023-10-25T05:15:17.332Z,99942.66
2023-10-25T05:17:48.446Z,99949.00
2023-10-25T05:20:17.321Z,99960.71
2023-10-25T05:22:51.575Z,99950.59
2023-10-25T05:25:20.961Z,99940.64
2023-10-25T05:27:49.812Z,99934.68
2023-10-25T05:30:19.167Z,99936.06
2023-10-25T05:32:50.499Z,99922.83
2023-10-25T05:35:19.275Z,99917.88
2023-10-25T05:37:47.767Z,99918.39
2023-10-25T05:40:18.645Z,99924.55
2023-10-25T05:42:49.638Z,99928.31
2023-10-25T05:45:18.403Z,99932.71
2023-10-25T05:47:47.095Z,99920.85
2023-10-25T05:50:16.285Z,99918.35
2023-10-25T05:52:48.230Z,99911.19
2023-10-25T05:55:17.756Z,99915.88
2023-10-25T05:57:47.634Z,99918.75
2023-10-25T06:00:17.164Z,99911.16
2023-10-25T06:02:46.065Z,99898.60
2023-10-25T06:05:15.019Z,99898.27
2023-10-25T06:07:44.483Z,99896.01
2023-10-25T06:10:13.687Z,99895.25
2023-10-25T06:12:43.161Z,99899.27
2023-10-25T06:15:11.806Z,99900.75
2023-10-25T06:17:40.746Z,99898.77
2023-10-25T06:20:11.318Z,99899.12
2023-10-25T06:22:39.467Z,99905.80
2023-10-25T06:25:13.694Z,99903.70
2023-10-25T06:27:42.301Z,99895.31
2023-10-25T06:30:10.940Z,99899.88
2023-10-25T06:32:41.359Z,99901.73
2023-10-25T06:35:10.037Z,99912.62
2023-10-25T06:37:39.194Z,99919.15
2023-10-25T06:40:08.381Z,99913.70
2023-10-25T06:42:37.604Z,99904.91
2023-10-25T06:45:06.886Z,99919.70
2023-10-25T06:47:35.658Z,99912.86
2023-10-25T06:50:05.123Z,99901.03
2023-10-25T06:52:33.912Z,99899.58
2023-10-25T06:55:02.566Z,99904.02
2023-10-25T06:57:31.891Z,99904.95
2023-10-25T07:00:00.870Z,99896.98
2023-10-25T07:02:48.466Z,99891.23
2023-10-25T07:05:17.236Z,99884.23
2023-10-25T07:07:46.615Z,99888.55
2023-10-25T07:10:15.353Z,99886.46
2023-10-25T07:12:43.734Z,99886.80
2023-10-25T07:15:12.742Z,99882.14
2023-10-25T07:17:42.546Z,99880.35
2023-10-25T07:20:11.428Z,99867.98
2023-10-25T07:22:40.334Z,99861.46
2023-10-25T07:25:10.128Z,99861.95
2023-10-25T07:27:38.678Z,99868.85
2023-10-25T07:30:07.810Z,99859.63
2023-10-25T07:32:37.251Z,99844.89
2023-10-25T07:35:06.547Z,99836.36
2023-10-25T07:37:34.807Z,99837.80
2023-10-25T07:40:06.873Z,99834.49
2023-10-25T07:42:35.306Z,99838.64
2023-10-25T07:45:05.462Z,99832.19
2023-10-25T07:47:33.717Z,99833.14
2023-10-25T07:50:02.407Z,99829.45
2023-10-25T07:52:31.405Z,99832.17
2023-10-25T07:55:00.088Z,99837.97
2023-10-25T07:58:12.580Z,99831.33
2023-10-25T08:00:17.592Z,99828.73
2023-10-25T08:02:45.713Z,99819.29
2023-10-25T08:05:13.912Z,99805.19
2023-10-25T08:07:43.429Z,99798.89
2023-10-25T08:10:11.974Z,99796.02
2023-10-25T08:12:40.262Z,99804.43
2023-10-25T08:15:09.395Z,99805.75
2023-10-25T08:17:37.680Z,99802.51
2023-10-25T08:20:06.888Z,99803.06
2023-10-25T08:22:36.631Z,99804.24
2023-10-25T08:25:10.457Z,99814.02
2023-10-25T08:27:38.871Z,99830.08
2023-10-25T08:30:08.344Z,99836.43
2023-10-25T08:32:36.819Z,99837.90
2023-10-25T08:35:06.046Z,99839.41
2023-10-25T08:37:34.247Z,99837.94
2023-10-25T08:40:02.455Z,99834.52
2023-10-25T08:42:30.785Z,99824.72
2023-10-25T08:45:00.231Z,99820.78
2023-10-25T08:47:29.914Z,99816.76
2023-10-25T08:49:58.312Z,99816.39
2023-10-25T08:52:26.930Z,99813.91
2023-10-25T08:54:55.054Z,99811.77
2023-10-25T08:57:23.694Z,99812.14
2023-10-25T08:59:53.121Z,99822.16
2023-10-25T09:02:21.642Z,99819.25
2023-10-25T09:05:07.886Z,99808.23
2023-10-25T09:07:38.378Z,99804.70
2023-10-25T09:10:14.567Z,99802.10
2023-10-25T09:12:43.211Z,99795.52
2023-10-25T09:15:11.539Z,99796.02
2023-10-25T09:17:40.126Z,99789.06
2023-10-25T09:20:09.664Z,99786.71
2023-10-25T09:22:37.718Z,99790.53
2023-10-25T09:25:06.952Z,99785.92
2023-10-25T09:27:43.376Z,99777.98
2023-10-25T09:30:26.543Z,99782.73
2023-10-25T09:32:55.884Z,99785.79
2023-10-25T09:35:24.728Z,99779.67
2023-10-25T09:37:52.839Z,99779.23
2023-10-25T09:40:22.094Z,99780.94
2023-10-25T09:42:55.580Z,99777.77
2023-10-25T09:45:30.167Z,99784.79
2023-10-25T09:48:05.891Z,99780.84
2023-10-25T09:50:43.151Z,99781.13
2023-10-25T09:53:38.623Z,99770.34
2023-10-25T09:56:10.081Z,99770.23
2023-10-25T09:58:39.256Z,99757.52
2023-10-25T10:01:10.044Z,99748.02
2023-10-25T10:03:48.718Z,99741.20
2023-10-25T10:06:22.971Z,99733.46
2023-10-25T10:09:06.363Z,99723.75
2023-10-25T10:11:41.658Z,99728.58
2023-10-25T10:14:29.303Z,99729.36
2023-10-25T10:17:06.267Z,99729.17
2023-10-25T10:19:38.580Z,99726.82
2023-10-25T10:22:08.958Z,99716.38
2023-10-25T10:24:49.707Z,99713.88
2023-10-25T10:27:19.616Z,99711.73
2023-10-25T10:29:49.237Z,99704.48
2023-10-25T10:32:18.867Z,99699.83
2023-10-25T10:34:57.612Z,99691.02
2023-10-25T10:37:29.655Z,99690.02
2023-10-25T10:40:02.154Z,99682.70
2023-10-25T10:42:41.052Z,99668.64
2023-10-25T10:45:19.537Z,99662.39
2023-10-25T10:47:56.956Z,99669.15
2023-10-25T10:50:27.228Z,99668.66
2023-10-25T10:52:55.569Z,99675.30
2023-10-25T10:55:26.144Z,99679.08
2023-10-25T11:00:29.039Z,99679.19
2023-10-25T11:02:57.190Z,99689.58
2023-10-25T11:05:25.787Z,99695.30
2023-10-25T11:07:55.368Z,99694.05
2023-10-25T11:10:23.714Z,99690.52
2023-10-25T11:12:51.971Z,99689.58
2023-10-25T11:15:25.775Z,99695.08
2023-10-25T11:17:54.804Z,99692.05
2023-10-25T11:20:23.075Z,99689.48
2023-10-25T11:22:52.276Z,99691.38
2023-10-25T11:25:25.865Z,99687.30
2023-10-25T11:27:57.230Z,99684.46
2023-10-25T11:30:26.620Z,99680.29
2023-10-25T11:32:55.714Z,99678.07
2023-10-25T11:35:26.123Z,99668.24
2023-10-25T11:37:54.521Z,99667.14
2023-10-25T11:40:37.427Z,99662.61
2023-10-25T11:43:07.380Z,99655.38
2023-10-25T11:45:39.056Z,99649.54
2023-10-25T11:48:09.316Z,99649.73
2023-10-25T11:50:38.331Z,99642.52
2023-10-25T11:53:08.536Z,99633.98
2023-10-25T11:55:37.217Z,99630.64
2023-10-25T11:58:06.064Z,99638.58
2023-10-25T12:00:34.279Z,99630.34
2023-10-25T12:03:02.561Z,99621.27
2023-10-25T12:05:31.314Z,99619.70
2023-10-25T12:07:59.652Z,99624.85
2023-10-25T12:10:28.900Z,99627.49
2023-10-25T12:12:57.984Z,99630.17
2023-10-25T12:15:26.155Z,99630.15
2023-10-25T12:17:54.593Z,99625.80
2023-10-25T12:20:28.156Z,99618.53
2023-10-25T12:22:57.751Z,99606.65
2023-10-25T12:25:27.899Z,99610.41
2023-10-25T12:27:56.712Z,99610.66
2023-10-25T12:30:25.084Z,99604.33
2023-10-25T12:32:55.422Z,99602.05
2023-10-25T12:35:23.810Z,99596.94
2023-10-25T12:37:52.019Z,99599.40
2023-10-25T12:40:20.179Z,99605.42
2023-10-25T12:42:49.394Z,99604.50
2023-10-25T12:45:18.176Z,99600.85
2023-10-25T12:47:46.450Z,99596.89
2023-10-25T12:50:14.864Z,99600.23
2023-10-25T12:52:43.388Z,99601.39
2023-10-25T12:55:14.812Z,99602.37
2023-10-25T12:57:43.756Z,99600.14
2023-10-25T13:00:13.185Z,99594.45
2023-10-25T13:02:41.997Z,99588.05
2023-10-25T13:05:10.389Z,99584.51
2023-10-25T13:07:38.734Z,99580.30
2023-10-25T13:10:07.851Z,99573.64
2023-10-25T13:12:37.218Z,99573.73
2023-10-25T13:15:07.230Z,99573.37
2023-10-25T13:17:35.398Z,99574.89
2023-10-25T13:20:04.248Z,99576.02
2023-10-25T13:22:32.773Z,99580.61
2023-10-25T13:25:01.447Z,99579.55
2023-10-25T13:27:30.007Z,99580.60
2023-10-25T13:29:58.454Z,99579.51
2023-10-25T13:32:28.409Z,99578.77
2023-10-25T13:34:56.950Z,99582.73
2023-10-25T13:37:25.893Z,99581.86
2023-10-25T13:39:54.668Z,99579.88
2023-10-25T13:42:23.627Z,99578.27
2023-10-25T13:44:51.944Z,99579.96
2023-10-25T13:47:20.152Z,99571.17
2023-10-25T13:49:48.894Z,99571.91
2023-10-25T13:52:17.288Z,99571.98
2023-10-25T13:54:46.364Z,99569.75
2023-10-25T13:57:15.160Z,99571.45
2023-10-25T13:59:45.100Z,99569.22
2023-10-25T14:02:13.416Z,99569.73
2023-10-25T14:04:41.465Z,99574.54
2023-10-25T14:07:09.592Z,99579.52
2023-10-25T14:09:38.764Z,99579.98
2023-10-25T14:12:08.545Z,99584.85
2023-10-25T14:14:36.907Z,99574.83
2023-10-25T14:17:05.874Z,99575.68
2023-10-25T14:19:33.998Z,99573.25
2023-10-25T14:22:02.177Z,99570.35
2023-10-25T14:24:33.723Z,99569.23
2023-10-25T14:27:10.694Z,99568.61
2023-10-25T14:29:39.080Z,99565.66
2023-10-25T14:32:07.757Z,99565.60
2023-10-25T14:34:35.930Z,99564.55
2023-10-25T14:37:04.608Z,99569.14
2023-10-25T14:39:32.727Z,99566.83
2023-10-25T14:42:01.170Z,99566.98
2023-10-25T14:44:31.741Z,99566.60
2023-10-25T14:47:00.790Z,99565.23
2023-10-25T14:49:29.308Z,99567.53
2023-10-25T14:51:57.805Z,99562.56
2023-10-25T14:54:27.337Z,99560.77
2023-10-25T14:56:55.977Z,99561.27
2023-10-25T14:59:24.481Z,99559.48
2023-10-25T15:01:52.795Z,99565.80
2023-10-25T15:04:21.207Z,99564.02
2023-10-25T15:06:49.345Z,99562.40
2023-10-25T15:09:17.494Z,99554.61
2023-10-25T15:11:45.903Z,99560.35
2023-10-25T15:14:15.370Z,99561.16
2023-10-25T15:16:43.814Z,99555.32
2023-10-25T15:19:11.946Z,99558.27
2023-10-25T15:21:40.249Z,99562.78
2023-10-25T15:24:09.376Z,99570.02
2023-10-25T15:26:37.660Z,99573.09
2023-10-25T15:29:06.069Z,99564.70
2023-10-25T15:31:34.673Z,99565.17
2023-10-25T15:34:04.180Z,99576.77
2023-10-25T15:36:32.543Z,99579.74
2023-10-25T15:39:09.140Z,99580.27
2023-10-25T15:41:38.476Z,99574.98
2023-10-25T15:44:07.413Z,99578.72
2023-10-25T15:46:36.774Z,99582.79
2023-10-25T15:49:05.375Z,99582.34
2023-10-25T15:51:37.327Z,99578.26
2023-10-25T15:54:06.776Z,99583.91
2023-10-25T15:56:35.293Z,99589.68
2023-10-25T15:59:05.081Z,99588.63
2023-10-25T16:01:44.268Z,99587.25
2023-10-25T16:04:20.755Z,99587.10
2023-10-25T16:06:49.198Z,99583.73
2023-10-25T16:09:17.345Z,99584.38
2023-10-25T16:11:45.840Z,99587.11
2023-10-25T16:14:14.505Z,99593.72
2023-10-25T16:16:42.752Z,99596.98
2023-10-25T16:19:11.054Z,99599.38
2023-10-25T16:21:39.302Z,99601.45
2023-10-25T16:24:08.860Z,99608.05
2023-10-25T16:26:37.170Z,99611.17
2023-10-25T16:29:07.564Z,99607.63
2023-10-25T16:31:37.132Z,99606.27
2023-10-25T16:34:05.569Z,99612.95
2023-10-25T16:36:34.452Z,99610.77
2023-10-25T16:39:05.862Z,99613.45
2023-10-25T16:41:34.419Z,99617.69
2023-10-25T16:44:02.738Z,99609.51
2023-10-25T16:46:30.889Z,99611.13
2023-10-25T16:48:59.296Z,99611.23
2023-10-25T16:51:28.021Z,99611.60
2023-10-25T16:53:56.913Z,99613.36
2023-10-25T16:56:25.336Z,99619.11
2023-10-25T16:58:55.669Z,99618.50
2023-10-25T17:01:23.895Z,99625.96
2023-10-25T17:03:52.710Z,99625.21
2023-10-25T17:06:21.882Z,99627.60
2023-10-25T17:08:50.662Z,99625.33
2023-10-25T17:11:19.077Z,99623.25
2023-10-25T17:13:47.162Z,99626.21
2023-10-25T17:16:16.569Z,99630.46
2023-10-25T17:18:46.581Z,99626.11
2023-10-25T17:21:15.347Z,99630.61
2023-10-25T17:23:47.406Z,99639.09
2023-10-25T17:26:15.724Z,99645.05
2023-10-25T17:28:44.340Z,99642.71
2023-10-25T17:31:15.901Z,99645.00
2023-10-25T17:33:46.387Z,99639.35
2023-10-25T17:36:14.925Z,99644.83
2023-10-25T17:38:43.388Z,99646.21
2023-10-25T17:41:11.720Z,99652.70
2023-10-25T17:43:40.195Z,99651.61
2023-10-25T17:46:12.341Z,99651.18
2023-10-25T17:48:41.150Z,99659.00
2023-10-25T17:51:11.203Z,99662.42
2023-10-25T17:53:39.571Z,99664.50
2023-10-25T17:56:08.537Z,99668.41
2023-10-25T17:58:36.866Z,99669.36
2023-10-25T18:01:05.818Z,99671.40
2023-10-25T18:03:34.049Z,99677.46
2023-10-25T18:06:04.504Z,99678.71
2023-10-25T18:08:32.904Z,99676.41
2023-10-25T18:11:02.111Z,99671.75
2023-10-25T18:13:30.626Z,99671.64
2023-10-25T18:15:59.028Z,99673.11
2023-10-25T18:18:29.225Z,99671.42
2023-10-25T18:20:58.966Z,99675.13
2023-10-25T18:23:27.417Z,99675.66
2023-10-25T18:25:55.775Z,99669.77
2023-10-25T18:28:24.046Z,99669.83
2023-10-25T18:32:00.790Z,99677.42
2023-10-25T18:33:48.112Z,99680.23
2023-10-25T18:36:16.391Z,99681.33
2023-10-25T18:38:47.095Z,99683.35
2023-10-25T18:41:15.741Z,99678.28
2023-10-25T18:43:48.761Z,99677.78
2023-10-25T18:46:19.148Z,99684.99
2023-10-25T18:48:48.310Z,99688.68
2023-10-25T18:51:17.004Z,99693.13
2023-10-25T18:53:46.205Z,99689.63
2023-10-25T18:56:14.766Z,99698.60
2023-10-25T18:58:44.346Z,99702.28
2023-10-25T19:01:17.836Z,99705.54
2023-10-25T19:03:50.817Z,99706.09
2023-10-25T19:06:34.644Z,99705.02
2023-10-25T19:09:05.390Z,99708.02
2023-10-25T19:11:34.046Z,99704.85
2023-10-25T19:14:02.587Z,99705.98
2023-10-25T19:16:31.850Z,99711.98
2023-10-25T19:19:02.531Z,99720.29
2023-10-25T19:21:33.078Z,99728.81
2023-10-25T19:24:04.248Z,99736.62
2023-10-25T19:26:47.627Z,99742.73
2023-10-25T19:29:19.417Z,99750.43
2023-10-25T19:31:48.868Z,99747.88
2023-10-25T19:34:17.266Z,99754.48
2023-10-25T19:36:45.830Z,99760.91
2023-10-25T19:39:14.493Z,99761.27
2023-10-25T19:41:45.546Z,99768.09
2023-10-25T19:44:14.134Z,99770.69
2023-10-25T19:46:42.188Z,99777.09
2023-10-25T19:49:10.767Z,99781.19
2023-10-25T19:51:41.561Z,99782.98
2023-10-25T19:54:12.276Z,99787.65
2023-10-25T19:56:41.263Z,99789.37
2023-10-25T19:59:09.683Z,99801.41
2023-10-25T20:01:38.213Z,99812.45
2023-10-25T20:04:06.670Z,99811.52
2023-10-25T20:06:35.226Z,99814.42
2023-10-25T20:09:04.611Z,99811.79
2023-10-25T20:11:33.217Z,99808.65
2023-10-25T20:14:01.346Z,99810.22
2023-10-25T20:16:31.339Z,99815.02
2023-10-25T20:18:59.905Z,99821.45
2023-10-25T20:21:28.137Z,99823.27
2023-10-25T20:24:02.475Z,99827.70
2023-10-25T20:26:34.782Z,99827.13
2023-10-25T20:29:05.386Z,99828.04
2023-10-25T20:31:33.928Z,99830.40
2023-10-25T20:34:02.537Z,99839.42
2023-10-25T20:36:32.311Z,99842.94
2023-10-25T20:39:00.933Z,99837.69
2023-10-25T20:41:29.604Z,99829.00
2023-10-25T20:43:58.035Z,99828.11
2023-10-25T20:46:26.524Z,99830.27
2023-10-25T20:48:55.000Z,99836.66
2023-10-25T20:51:26.553Z,99840.30
2023-10-25T20:53:55.537Z,99841.40
2023-10-25T20:56:24.066Z,99840.19
2023-10-25T20:58:52.905Z,99844.70
2023-10-25T21:01:21.156Z,99843.91
2023-10-25T21:03:49.608Z,99846.83
2023-10-25T21:06:18.660Z,99849.31
2023-10-25T21:08:47.241Z,99838.23
2023-10-25T21:11:15.672Z,99841.38
2023-10-25T21:13:43.848Z,99829.15
2023-10-25T21:16:15.264Z,99825.76
2023-10-25T21:18:43.509Z,99823.69
2023-10-25T21:21:13.480Z,99820.07
2023-10-25T21:23:42.216Z,99808.98
2023-10-25T21:26:12.808Z,99810.42
2023-10-25T21:28:41.996Z,99810.02
2023-10-25T21:31:11.131Z,99814.07
2023-10-25T21:33:40.122Z,99818.96
2023-10-25T21:36:12.136Z,99813.04
2023-10-25T21:38:40.575Z,99810.52
2023-10-25T21:41:15.823Z,99804.73
2023-10-25T21:43:44.722Z,99808.93
2023-10-25T21:46:13.396Z,99811.91
2023-10-25T21:48:42.186Z,99813.83
2023-10-25T21:51:11.121Z,99817.15
2023-10-25T21:53:39.715Z,99822.63
2023-10-25T21:56:22.322Z,99819.30
2023-10-25T21:59:49.336Z,99823.21
2023-10-25T22:01:47.309Z,99832.82
2023-10-25T22:04:22.054Z,99829.47
2023-10-25T22:06:50.992Z,99830.88
2023-10-25T22:09:21.142Z,99841.70
2023-10-25T22:11:51.104Z,99841.92
2023-10-25T22:14:21.060Z,99842.89
2023-10-25T22:16:49.346Z,99847.88
2023-10-25T22:19:17.973Z,99857.20
2023-10-25T22:21:46.390Z,99865.95
2023-10-25T22:24:17.087Z,99870.45
2023-10-25T22:26:45.773Z,99881.02
2023-10-25T22:29:17.594Z,99889.61
2023-10-25T22:31:46.584Z,99899.06
2023-10-25T22:34:19.781Z,99902.37
2023-10-25T22:36:49.318Z,99898.77
2023-10-25T22:39:19.057Z,99888.03
2023-10-25T22:41:47.462Z,99884.82
2023-10-25T22:44:16.140Z,99894.40
2023-10-25T22:46:44.241Z,99896.80
2023-10-25T22:49:13.435Z,99894.48
2023-10-25T22:51:41.725Z,99893.95
2023-10-25T22:54:10.125Z,99892.19
2023-10-25T22:56:39.087Z,99885.21
2023-10-25T22:59:07.230Z,99868.52
2023-10-25T23:01:35.367Z,99864.58
2023-10-25T23:04:03.774Z,99871.14
2023-10-25T23:06:35.036Z,99881.23
2023-10-25T23:09:03.960Z,99883.27
2023-10-25T23:11:32.769Z,99887.05
2023-10-25T23:14:00.808Z,99887.52
2023-10-25T23:16:29.364Z,99886.52
2023-10-25T23:19:01.568Z,99879.69
2023-10-25T23:21:29.828Z,99873.63
2023-10-25T23:23:58.272Z,99871.91
2023-10-25T23:26:26.448Z,99882.62
2023-10-25T23:28:54.563Z,99901.23
2023-10-25T23:31:23.109Z,99909.21
2023-10-25T23:33:51.281Z,99911.48
2023-10-25T23:36:19.798Z,99921.62
2023-10-25T23:38:47.983Z,99920.72
2023-10-25T23:41:16.552Z,99913.75
2023-10-25T23:43:45.729Z,99918.29
2023-10-25T23:46:13.868Z,99925.14
2023-10-25T23:48:42.089Z,99929.81
2023-10-25T23:51:10.542Z,99929.46
2023-10-25T23:53:39.159Z,99920.60
2023-10-25T23:56:36.762Z,99914.68
2023-10-25T23:58:55.954Z,99900.02
